createdAt,value
2018-06-27T00:00:40.437Z,73.41
2018-06-27T00:01:50.510Z,73.8
2018-06-27T00:03:00.577Z,73.83
2018-06-27T00:04:10.394Z,73.65
2018-06-27T00:05:20.457Z,73.74
2018-06-27T00:06:30.528Z,73.83
2018-06-27T00:07:40.344Z,73.65
2018-06-27T00:08:50.148Z,73.74
2018-06-27T00:10:00.209Z,73.45
2018-06-27T00:11:10.293Z,73.55
2018-06-27T00:12:20.409Z,73.74
2018-06-27T00:13:30.481Z,73.45
2018-06-27T00:14:40.577Z,73.65
2018-06-27T00:15:50.659Z,73.55
2018-06-27T00:17:00.704Z,73.55
2018-06-27T00:18:10.775Z,73.74
2018-06-27T00:19:20.994Z,73.65
2018-06-27T00:20:31.383Z,73.45
2018-06-27T00:21:41.461Z,73.45
2018-06-27T00:22:51.550Z,73.45
2018-06-27T00:24:01.368Z,73.45
2018-06-27T00:25:11.443Z,73.45
2018-06-27T00:26:21.571Z,73.65
2018-06-27T00:27:31.666Z,73.65
2018-06-27T00:28:41.737Z,73.65
2018-06-27T00:29:51.817Z,73.65
2018-06-27T00:31:01.880Z,73.65
2018-06-27T00:32:11.964Z,73.65
2018-06-27T00:33:21.774Z,73.65
2018-06-27T00:34:31.847Z,73.83
2018-06-27T00:35:41.944Z,73.83
2018-06-27T00:36:51.762Z,73.35
2018-06-27T00:38:01.554Z,73.65
2018-06-27T00:39:11.617Z,73.35
2018-06-27T00:40:21.695Z,73.45
2018-06-27T00:41:31.803Z,73.83
2018-06-27T00:42:41.876Z,73.65
2018-06-27T00:43:51.687Z,73.55
2018-06-27T00:45:01.497Z,73.35
2018-06-27T00:46:11.601Z,73.45
2018-06-27T00:47:20.887Z,73.45
2018-06-27T00:48:30.966Z,73.74
2018-06-27T00:49:41.057Z,73.26
2018-06-27T00:50:51.119Z,73.55
2018-06-27T00:52:01.185Z,73.35
2018-06-27T00:53:11.278Z,74.12
2018-06-27T00:54:21.417Z,73.93
2018-06-27T00:55:31.231Z,74.02
2018-06-27T00:56:40.776Z,73.93
2018-06-27T00:57:50.847Z,73.83
2018-06-27T00:59:00.911Z,74.02
2018-06-27T01:00:10.994Z,73.93
2018-06-27T01:01:21.066Z,74.02
2018-06-27T01:02:31.166Z,74.02
2018-06-27T01:03:41.230Z,74.02
2018-06-27T01:04:51.021Z,73.83
2018-06-27T01:06:01.103Z,73.83
2018-06-27T01:07:10.941Z,73.93
2018-06-27T01:08:21.007Z,73.83
2018-06-27T01:09:30.829Z,73.93
2018-06-27T01:10:41.045Z,74.02
2018-06-27T01:11:51.383Z,73.83
2018-06-27T01:13:01.481Z,73.93
2018-06-27T01:14:11.535Z,74.02
2018-06-27T01:15:20.832Z,73.93
2018-06-27T01:16:30.706Z,74.12
2018-06-27T01:17:40.826Z,74.02
2018-06-27T01:18:50.889Z,74.41
2018-06-27T01:20:01.010Z,74.51
2018-06-27T01:21:11.402Z,74.37
2018-06-27T01:22:21.219Z,74.18
2018-06-27T01:23:31.301Z,74.08
2018-06-27T01:24:41.102Z,74.27
2018-06-27T01:25:50.635Z,74.27
2018-06-27T01:27:00.426Z,74.08
2018-06-27T01:28:10.496Z,74.27
2018-06-27T01:29:20.562Z,74.66
2018-06-27T01:30:30.626Z,74.57
2018-06-27T01:31:40.705Z,74.57
2018-06-27T01:32:50.769Z,74.57
2018-06-27T01:34:00.845Z,74.66
2018-06-27T01:35:10.924Z,74.18
2018-06-27T01:36:20.989Z,74.57
2018-06-27T01:37:30.799Z,74.27
2018-06-27T01:38:40.857Z,74.18
2018-06-27T01:39:50.646Z,74.27
2018-06-27T01:41:00.452Z,74.18
2018-06-27T01:42:10.517Z,74.18
2018-06-27T01:43:20.588Z,74.57
2018-06-27T01:44:30.711Z,74.08
2018-06-27T01:45:40.509Z,74.08
2018-06-27T01:46:50.573Z,74.08
2018-06-27T01:48:00.373Z,73.8
2018-06-27T01:49:10.458Z,73.9
2018-06-27T01:50:20.258Z,73.99
2018-06-27T01:51:30.116Z,73.99
2018-06-27T01:52:40.184Z,74.18
2018-06-27T01:53:50.262Z,74.37
2018-06-27T01:55:00.387Z,74.18
2018-06-27T01:56:10.205Z,74.08
2018-06-27T01:57:20.285Z,74.47
2018-06-27T01:58:30.348Z,74.18
2018-06-27T01:59:40.436Z,74.27
2018-06-27T02:00:50.507Z,74.27
2018-06-27T02:02:00.577Z,74.76
2018-06-27T02:03:10.392Z,74.57
2018-06-27T02:04:20.208Z,74.57
2018-06-27T02:05:30.260Z,74.57
2018-06-27T02:06:40.074Z,74.66
2018-06-27T02:07:49.886Z,74.47
2018-06-27T02:08:59.947Z,74.66
2018-06-27T02:10:09.238Z,74.18
2018-06-27T02:11:19.306Z,74.08
2018-06-27T02:12:29.369Z,74.47
2018-06-27T02:13:39.431Z,74.08
2018-06-27T02:14:49.502Z,74.18
2018-06-27T02:15:59.558Z,74.27
2018-06-27T02:17:09.621Z,74.47
2018-06-27T02:18:19.425Z,74.47
2018-06-27T02:19:29.241Z,74.18
2018-06-27T02:20:39.310Z,74.18
2018-06-27T02:21:49.373Z,74.18
2018-06-27T02:22:59.438Z,74.37
2018-06-27T02:24:09.261Z,74.27
2018-06-27T02:25:19.354Z,74.08
2018-06-27T02:26:29.438Z,74.37
2018-06-27T02:27:39.258Z,74.08
2018-06-27T02:28:49.056Z,74.08
2018-06-27T02:29:59.161Z,73.99
2018-06-27T02:31:08.979Z,74.08
2018-06-27T02:32:19.127Z,74.27
2018-06-27T02:33:29.301Z,74.47
2018-06-27T02:34:39.366Z,74.47
2018-06-27T02:35:48.907Z,74.47
2018-06-27T02:36:58.974Z,74.27
2018-06-27T02:38:09.104Z,74.76
2018-06-27T02:39:19.188Z,74.08
2018-06-27T02:40:29.011Z,74.57
2018-06-27T02:41:39.071Z,74.66
2018-06-27T02:42:48.880Z,74.66
2018-06-27T02:43:58.958Z,74.66
2018-06-27T02:45:09.040Z,74.37
2018-06-27T02:46:19.122Z,74.57
2018-06-27T02:47:29.224Z,74.66
2018-06-27T02:48:39.293Z,74.66
2018-06-27T02:49:49.494Z,74.43
2018-06-27T02:51:00.037Z,74.52
2018-06-27T02:52:09.866Z,74.52
2018-06-27T02:53:19.943Z,74.43
2018-06-27T02:54:30.029Z,74.33
2018-06-27T02:55:40.096Z,74.24
2018-06-27T02:56:49.906Z,74.15
2018-06-27T02:58:00.024Z,74.33
2018-06-27T02:59:10.102Z,74.24
2018-06-27T03:00:20.208Z,74.33
2018-06-27T03:01:30.294Z,74.24
2018-06-27T03:02:40.389Z,74.24
2018-06-27T03:34:37.999Z,69.31
2018-06-27T03:35:48.079Z,69.02
2018-06-27T03:36:58.139Z,69.89
2018-06-27T03:38:08.200Z,70.75
2018-06-27T03:39:18.253Z,70.94
2018-06-27T03:40:28.323Z,71.51
2018-06-27T03:41:38.387Z,72.56
2018-06-27T03:42:48.453Z,72.47
2018-06-27T03:43:58.521Z,72.56
2018-06-27T03:45:08.312Z,73.04
2018-06-27T03:46:18.374Z,73.08
2018-06-27T03:47:28.442Z,73.27
2018-06-27T03:48:38.515Z,73.55
2018-06-27T03:49:48.580Z,73.27
2018-06-27T03:50:58.663Z,73.65
2018-06-27T03:52:08.463Z,73.21
2018-06-27T03:53:18.274Z,73.3
2018-06-27T03:54:28.093Z,73.88
2018-06-27T03:55:37.629Z,73.69
2018-06-27T03:56:47.690Z,73.88
2018-06-27T03:57:58.763Z,73.69
2018-06-27T03:59:08.855Z,73.97
2018-06-27T04:00:19.061Z,73.91
2018-06-27T04:01:29.130Z,73.91
2018-06-27T04:02:39.192Z,73.82
2018-06-27T04:03:49.267Z,73.63
2018-06-27T04:04:59.331Z,73.63
2018-06-27T04:06:09.140Z,73.54
2018-06-27T04:07:18.958Z,73.44
2018-06-27T04:08:29.034Z,73.82
2018-06-27T04:09:39.141Z,73.47
2018-06-27T04:10:49.239Z,73.24
2018-06-27T04:11:59.324Z,73.38
2018-06-27T04:13:09.778Z,73.38
2018-06-27T04:14:20.191Z,73.38
2018-06-27T04:15:30.377Z,73.28
2018-06-27T04:16:40.466Z,73.38
2018-06-27T04:17:50.529Z,73.28
2018-06-27T04:19:00.653Z,73.19
2018-06-27T04:20:10.752Z,73.19
2018-06-27T04:21:21.143Z,73.38
2018-06-27T04:22:31.216Z,73.38
2018-06-27T04:23:41.298Z,73.76
2018-06-27T04:24:51.106Z,73.66
2018-06-27T04:26:00.926Z,72.94
2018-06-27T04:27:11.017Z,73.13
2018-06-27T04:28:21.091Z,73.51
2018-06-27T04:29:31.156Z,72.84
2018-06-27T04:30:40.705Z,72.11
2018-06-27T04:31:50.512Z,71.37
2018-06-27T04:33:00.594Z,70.29
2018-06-27T04:34:10.652Z,67.51
2018-06-27T04:35:20.719Z,64.69
2018-06-27T04:36:30.781Z,63.56
2018-06-27T04:37:40.851Z,62.72
2018-06-27T04:38:50.919Z,62.4
2018-06-27T04:40:00.996Z,62.82
2018-06-27T04:41:11.081Z,62.88
2018-06-27T04:42:21.163Z,62.29
2018-06-27T04:43:31.256Z,61.61
2018-06-27T04:44:41.344Z,61.96
2018-06-27T04:45:51.410Z,61.21
2018-06-27T04:47:01.481Z,61.54
2018-06-27T04:48:11.315Z,61.11
2018-06-27T04:49:21.381Z,60.75
2018-06-27T04:50:31.536Z,61.53
2018-06-27T04:51:41.351Z,61.36
2018-06-27T04:52:51.169Z,61.2
2018-06-27T04:54:01.232Z,61.13
2018-06-27T04:55:11.302Z,61.82
2018-06-27T04:56:21.391Z,61.65
2018-06-27T04:57:31.479Z,61.06
2018-06-27T04:58:41.546Z,61.84
2018-06-27T04:59:51.352Z,61.74
2018-06-27T05:01:01.422Z,61.68
2018-06-27T05:02:11.493Z,61.38
2018-06-27T05:03:21.572Z,62.07
2018-06-27T05:04:31.386Z,61.87
2018-06-27T05:05:40.680Z,61.87
2018-06-27T05:06:50.755Z,61.97
2018-06-27T05:08:00.823Z,62.63
2018-06-27T05:09:10.641Z,62.89
2018-06-27T05:10:20.453Z,62.04
2018-06-27T05:11:30.570Z,62.43
2018-06-27T05:12:40.819Z,62.33
2018-06-27T05:13:50.614Z,61.94
2018-06-27T05:15:00.483Z,62.13
2018-06-27T05:16:10.573Z,63.09
2018-06-27T05:17:20.644Z,62.6
2018-06-27T05:18:30.466Z,62.7
2018-06-27T05:19:40.553Z,63.09
2018-06-27T05:20:50.619Z,64.48
2018-06-27T05:22:00.722Z,64.13
2018-06-27T05:23:10.795Z,64.32
2018-06-27T05:24:20.892Z,65.5
2018-06-27T05:25:30.973Z,67.5
2018-06-27T05:26:40.782Z,68.02
2018-06-27T05:27:50.890Z,66.5
2018-06-27T05:29:00.977Z,65.63
2018-06-27T05:30:10.798Z,64.26
2018-06-27T05:31:20.888Z,63.02
2018-06-27T05:32:31.017Z,62.99
2018-06-27T05:33:41.288Z,62.44
2018-06-27T05:34:51.428Z,63.02
2018-06-27T05:36:01.544Z,62.82
2018-06-27T05:37:11.617Z,62.27
2018-06-27T05:38:21.700Z,62.08
2018-06-27T05:39:31.778Z,62.08
2018-06-27T05:40:41.333Z,61.98
2018-06-27T05:41:51.463Z,63.64
2018-06-27T05:43:01.544Z,65.46
2018-06-27T05:44:11.740Z,65.37
2018-06-27T05:45:21.668Z,64.26
2018-06-27T05:46:31.763Z,63.06
2018-06-27T05:47:41.894Z,63.09
2018-06-27T05:48:51.705Z,63.18
2018-06-27T05:50:01.769Z,63.51
2018-06-27T05:51:11.834Z,64.42
2018-06-27T05:52:21.663Z,65.82
2018-06-27T05:53:31.748Z,67.28
2018-06-27T05:54:41.571Z,68.6
2018-06-27T05:55:51.648Z,69.79
2018-06-27T05:57:01.500Z,71.56
2018-06-27T05:58:11.736Z,72.17
2018-06-27T05:59:22.007Z,72.84
2018-06-27T06:00:32.103Z,73.09
2018-06-27T06:01:42.189Z,72.86
2018-06-27T06:02:52.011Z,72.58
2018-06-27T06:04:02.070Z,71.7
2018-06-27T06:05:12.136Z,71.8
2018-06-27T06:06:22.238Z,71.9
2018-06-27T06:07:32.335Z,71.67
2018-06-27T06:08:42.395Z,71.67
2018-06-27T06:09:52.213Z,71.64
2018-06-27T06:11:02.323Z,71.64
2018-06-27T06:12:11.931Z,71.54
2018-06-27T06:13:22.007Z,70.92
2018-06-27T06:14:31.859Z,69.51
2018-06-27T06:15:41.982Z,68.55
2018-06-27T06:16:52.053Z,68.26
2018-06-27T06:18:02.134Z,68.59
2018-06-27T06:19:12.210Z,68.14
2018-06-27T06:20:22.295Z,67.4
2018-06-27T06:21:32.426Z,67.4
2018-06-27T06:22:42.501Z,65.82
2018-06-27T06:23:52.588Z,65.05
2018-06-27T06:25:02.660Z,64.53
2018-06-27T06:26:12.729Z,64.72
2018-06-27T06:27:22.793Z,64.26
2018-06-27T06:28:32.602Z,64.2
2018-06-27T06:29:42.694Z,64.23
2018-06-27T06:30:52.770Z,65.08
2018-06-27T06:32:02.865Z,64.23
2018-06-27T06:33:13.153Z,63.9
2018-06-27T06:34:23.228Z,65.04
2018-06-27T06:35:33.327Z,65.5
2018-06-27T06:36:43.404Z,65.5
2018-06-27T06:37:53.490Z,64.85
2018-06-27T06:39:03.584Z,65.37
2018-06-27T06:40:13.724Z,66.66
2018-06-27T06:41:23.818Z,66.34
2018-06-27T06:42:33.972Z,65.66
2018-06-27T06:43:44.049Z,65.4
2018-06-27T06:44:53.871Z,66.37
2018-06-27T06:46:04.059Z,66.34
2018-06-27T06:47:14.356Z,67.8
2018-06-27T06:48:24.186Z,68.51
2018-06-27T06:49:34.281Z,68.08
2018-06-27T06:50:44.097Z,68.24
2018-06-27T06:51:53.901Z,68.63
2018-06-27T06:53:04.017Z,68.44
2018-06-27T06:54:14.089Z,68.34
2018-06-27T06:55:24.159Z,68.15
2018-06-27T06:56:33.958Z,67.66
2018-06-27T06:57:43.774Z,68.54
2018-06-27T06:58:53.857Z,68.76
2018-06-27T07:00:03.660Z,68.66
2018-06-27T07:01:13.741Z,69.34
2018-06-27T07:02:23.824Z,69.17
2018-06-27T07:03:33.623Z,69.37
2018-06-27T07:04:43.435Z,70.24
2018-06-27T07:05:53.540Z,70.2
2018-06-27T07:07:03.398Z,69.88
2018-06-27T07:08:13.477Z,70.07
2018-06-27T07:09:23.285Z,70.36
2018-06-27T07:10:33.398Z,70.32
2018-06-27T07:11:43.210Z,69.56
2018-06-27T07:12:53.279Z,69.59
2018-06-27T07:14:03.353Z,69.88
2018-06-27T07:15:13.431Z,69.88
2018-06-27T07:16:23.496Z,69.88
2018-06-27T07:17:33.386Z,69.88
2018-06-27T07:18:43.204Z,69.94
2018-06-27T07:19:53.014Z,70.14
2018-06-27T07:21:03.080Z,69.84
2018-06-27T07:22:13.137Z,70.14
2018-06-27T07:23:22.935Z,69.65
2018-06-27T07:24:32.999Z,70.23
2018-06-27T07:25:43.091Z,69.56
2018-06-27T07:26:53.178Z,69.94
2018-06-27T07:28:02.739Z,70.23
2018-06-27T07:29:12.560Z,69.74
2018-06-27T07:30:22.632Z,70.14
2018-06-27T07:31:32.455Z,70.32
2018-06-27T07:32:42.274Z,70.04
2018-06-27T07:33:52.398Z,69.94
2018-06-27T07:35:02.211Z,69.1
2018-06-27T07:36:12.024Z,68.91
2018-06-27T07:37:22.107Z,69.98
2018-06-27T07:38:32.201Z,70.42
2018-06-27T07:39:42.276Z,70.87
2018-06-27T07:40:52.351Z,70.48
2018-06-27T07:42:02.464Z,70.48
2018-06-27T07:43:12.542Z,70.29
2018-06-27T07:44:22.710Z,69.94
2018-06-27T07:45:33.114Z,70.32
2018-06-27T07:46:43.196Z,70.39
2018-06-27T07:47:53.041Z,70.39
2018-06-27T07:49:03.141Z,70.39
2018-06-27T07:50:13.239Z,70.29
2018-06-27T07:51:23.319Z,69.46
2018-06-27T07:52:33.400Z,68.75
2018-06-27T07:53:43.472Z,69.27
2018-06-27T07:54:53.027Z,69.17
2018-06-27T07:56:03.103Z,68.49
2018-06-27T07:57:13.172Z,68.98
2018-06-27T07:58:23.266Z,69.27
2018-06-27T07:59:33.354Z,69.24
2018-06-27T08:00:43.444Z,68.88
2018-06-27T08:01:53.276Z,68.33
2018-06-27T08:03:03.363Z,68.63
2018-06-27T08:04:13.210Z,69.11
2018-06-27T08:05:23.295Z,68.82
2018-06-27T08:06:33.121Z,68.63
2018-06-27T08:07:43.207Z,68.47
2018-06-27T08:08:53.307Z,67.79
2018-06-27T08:10:03.175Z,68.02
2018-06-27T08:11:13.010Z,68.95
2018-06-27T08:12:23.288Z,69.5
2018-06-27T08:13:33.667Z,70.14
2018-06-27T08:14:43.737Z,70.24
2018-06-27T08:15:53.539Z,69.95
2018-06-27T08:17:03.618Z,70.53
2018-06-27T08:18:13.451Z,70.43
2018-06-27T08:19:23.540Z,69.95
2018-06-27T08:20:33.665Z,68.43
2018-06-27T08:21:43.226Z,67.72
2018-06-27T08:22:53.560Z,68.15
2018-06-27T08:24:03.633Z,67.85
2018-06-27T08:25:13.460Z,68.08
2018-06-27T08:26:23.599Z,68.08
2018-06-27T08:27:34.773Z,68.47
2018-06-27T08:28:44.590Z,68.18
2018-06-27T08:29:54.693Z,67.79
2018-06-27T08:31:04.792Z,68.47
2018-06-27T08:32:14.687Z,68.92
2018-06-27T08:33:24.796Z,69.37
2018-06-27T08:34:34.910Z,69.67
2018-06-27T08:35:44.737Z,70.34
2018-06-27T08:36:54.849Z,69.82
2018-06-27T08:38:04.932Z,69.92
2018-06-27T08:39:15.015Z,69.73
2018-06-27T08:40:25.089Z,70.01
2018-06-27T08:41:35.165Z,69.47
2018-06-27T08:42:45.020Z,68.44
2018-06-27T08:43:55.172Z,69.12
2018-06-27T08:45:05.272Z,69.02
2018-06-27T08:46:14.858Z,69.41
2018-06-27T08:47:24.682Z,69.41
2018-06-27T08:48:34.775Z,69.41
2018-06-27T08:49:45.024Z,69.41
2018-06-27T08:50:54.926Z,68.96
2018-06-27T08:52:05.029Z,68.47
2018-06-27T08:53:15.129Z,68.79
2018-06-27T08:54:25.252Z,68.79
2018-06-27T08:55:35.074Z,68.96
2018-06-27T08:56:44.898Z,68.28
2018-06-27T08:57:54.990Z,68.02
2018-06-27T08:59:05.104Z,68.54
2018-06-27T09:00:15.198Z,68.57
2018-06-27T09:01:25.560Z,68.28
2018-06-27T09:02:35.688Z,68.08
2018-06-27T09:03:45.800Z,68.18
2018-06-27T09:04:55.890Z,67.99
2018-06-27T09:06:05.984Z,68.08
2018-06-27T09:07:16.126Z,68.08
2018-06-27T09:08:26.217Z,68.32
2018-06-27T09:09:36.299Z,68.02
2018-06-27T09:10:46.105Z,68.32
2018-06-27T09:11:56.206Z,68.15
2018-06-27T09:13:06.304Z,67.76
2018-06-27T09:14:15.869Z,68.05
2018-06-27T09:15:25.963Z,67.57
2018-06-27T09:16:36.056Z,67.41
2018-06-27T09:17:45.887Z,67.35
2018-06-27T09:18:55.452Z,67.86
2018-06-27T09:20:05.557Z,67.38
2018-06-27T09:21:15.697Z,67.47
2018-06-27T09:22:25.513Z,67.77
2018-06-27T09:23:35.602Z,67.47
2018-06-27T09:24:45.914Z,67.86
2018-06-27T09:25:56.006Z,68.35
2018-06-27T09:27:07.187Z,68.02
2018-06-27T09:28:17.296Z,68.71
2018-06-27T09:29:27.134Z,67.8
2018-06-27T09:30:36.964Z,68.32
2018-06-27T09:31:47.074Z,68.12
2018-06-27T09:32:56.951Z,68.35
2018-06-27T09:34:07.138Z,69.1
2018-06-27T09:35:17.167Z,69.65
2018-06-27T09:36:26.996Z,70.58
2018-06-27T09:37:37.089Z,70.75
2018-06-27T09:38:46.916Z,70.9
2018-06-27T09:39:57.008Z,70.67
2018-06-27T09:41:07.122Z,71.16
2018-06-27T09:42:17.197Z,70.73
2018-06-27T09:43:27.268Z,70.67
2018-06-27T09:44:37.101Z,70.19
2018-06-27T09:45:46.921Z,69.74
2018-06-27T09:46:56.768Z,68.8
2018-06-27T09:48:06.923Z,68.29
2018-06-27T09:49:17.033Z,68.22
2018-06-27T09:50:27.286Z,68.32
2018-06-27T09:51:37.368Z,68.22
2018-06-27T09:52:47.492Z,68.67
2018-06-27T09:53:57.375Z,69.9
2018-06-27T09:55:07.459Z,69.87
2018-06-27T09:56:17.339Z,70.42
2018-06-27T09:57:27.158Z,70.42
2018-06-27T09:58:36.984Z,70.22
2018-06-27T09:59:46.807Z,69.15
2018-06-27T10:00:56.912Z,69.48
2018-06-27T10:02:07.094Z,68.25
2018-06-27T10:03:17.468Z,68.29
2018-06-27T10:04:27.310Z,67.38
2018-06-27T10:05:36.897Z,67.5
2018-06-27T10:06:46.726Z,67.93
2018-06-27T10:07:56.869Z,68.48
2018-06-27T10:09:07.002Z,68.35
2018-06-27T10:10:17.159Z,68.74
2018-06-27T10:11:26.732Z,68.87
2018-06-27T10:12:36.564Z,68.93
2018-06-27T10:13:46.446Z,69.32
2018-06-27T10:14:56.590Z,68.84
2018-06-27T10:16:06.703Z,68.09
2018-06-27T10:17:16.540Z,68.38
2018-06-27T10:18:27.033Z,68.03
2018-06-27T10:19:36.893Z,68.16
2018-06-27T10:20:47.070Z,68.13
2018-06-27T10:21:57.195Z,69.1
2018-06-27T10:23:07.269Z,69.07
2018-06-27T10:24:17.373Z,68.97
2018-06-27T10:25:27.467Z,68.77
2018-06-27T10:26:37.561Z,68.77
2018-06-27T10:27:47.383Z,69.26
2018-06-27T10:28:57.240Z,68.87
2018-06-27T10:30:07.335Z,69.1
2018-06-27T10:31:17.419Z,68.23
2018-06-27T10:32:27.526Z,68.35
2018-06-27T10:33:37.614Z,68.19
2018-06-27T10:34:47.494Z,68.59
2018-06-27T10:35:57.865Z,67.93
2018-06-27T10:37:07.967Z,68.07
2018-06-27T10:38:17.544Z,68.52
2018-06-27T10:39:27.689Z,68.52
2018-06-27T10:40:37.778Z,68.23
2018-06-27T10:41:47.341Z,68.52
2018-06-27T10:42:57.466Z,68.42
2018-06-27T10:44:07.555Z,68.52
2018-06-27T10:45:17.661Z,68.46
2018-06-27T10:46:27.761Z,68.36
2018-06-27T10:47:37.593Z,68.46
2018-06-27T10:48:47.460Z,69.1
2018-06-27T10:49:57.562Z,69.56
2018-06-27T10:51:07.664Z,70.17
2018-06-27T10:52:17.757Z,71.01
2018-06-27T10:53:27.854Z,71.82
2018-06-27T10:54:37.936Z,72.08
2018-06-27T10:55:48.020Z,72.53
2018-06-27T10:56:58.063Z,72.24
2018-06-27T10:58:08.183Z,72.59
2018-06-27T10:59:18.021Z,72.3
2018-06-27T11:00:28.131Z,72.17
2018-06-27T11:01:37.708Z,72.27
2018-06-27T11:02:47.803Z,72.45
2018-06-27T11:03:57.900Z,72.17
2018-06-27T11:05:07.993Z,71.2
2018-06-27T11:06:18.224Z,70.1
2018-06-27T11:07:28.314Z,68.71
2018-06-27T11:08:38.414Z,68.29
2018-06-27T11:09:48.256Z,68.19
2018-06-27T11:10:58.086Z,69
2018-06-27T11:12:07.649Z,68.87
2018-06-27T11:13:17.989Z,69.71
2018-06-27T11:14:28.095Z,69.91
2018-06-27T11:15:37.920Z,69.58
2018-06-27T11:16:47.758Z,69.48
2018-06-27T11:17:57.873Z,69.32
2018-06-27T11:19:07.951Z,69.81
2018-06-27T11:20:17.813Z,69.71
2018-06-27T11:21:28.092Z,69.62
2018-06-27T11:22:38.185Z,70.1
2018-06-27T11:23:48.283Z,70.26
2018-06-27T11:24:58.351Z,70.75
2018-06-27T11:26:08.447Z,71.14
2018-06-27T11:27:18.530Z,71.11
2018-06-27T11:28:28.617Z,70.91
2018-06-27T11:29:38.439Z,70.68
2018-06-27T11:30:48.536Z,70.87
2018-06-27T11:31:58.641Z,70.87
2018-06-27T11:33:08.739Z,71.26
2018-06-27T11:34:18.852Z,71.07
2018-06-27T11:35:28.927Z,70.87
2018-06-27T11:36:38.779Z,70.52
2018-06-27T11:37:48.618Z,71.01
2018-06-27T11:38:58.701Z,70.91
2018-06-27T11:40:08.801Z,70.72
2018-06-27T11:41:18.908Z,70.78
2018-06-27T11:42:29.101Z,70.68
2018-06-27T11:43:38.669Z,70.97
2018-06-27T11:44:48.761Z,71.23
2018-06-27T11:45:58.608Z,70.97
2018-06-27T11:47:08.727Z,70.97
2018-06-27T11:48:18.563Z,70.78
2018-06-27T11:49:28.661Z,70.87
2018-06-27T11:50:38.756Z,70.58
2018-06-27T11:51:48.866Z,70.52
2018-06-27T11:52:59.019Z,70.32
2018-06-27T11:54:09.118Z,69.39
2018-06-27T11:55:19.207Z,69.48
2018-06-27T11:56:29.321Z,69.32
2018-06-27T11:57:39.160Z,69.23
2018-06-27T11:58:49.011Z,68.77
2018-06-27T11:59:59.086Z,69.07
2018-06-27T12:01:09.212Z,68.62
2018-06-27T12:02:19.307Z,68.45
2018-06-27T12:03:29.431Z,68.77
2018-06-27T12:04:39.548Z,68.87
2018-06-27T12:05:49.644Z,68.36
2018-06-27T12:06:59.763Z,67.68
2018-06-27T12:08:09.840Z,67.71
2018-06-27T12:09:19.934Z,67.93
2018-06-27T12:10:30.041Z,67.77
2018-06-27T12:11:40.137Z,68.75
2018-06-27T12:12:50.224Z,69.95
2018-06-27T12:14:00.331Z,70.76
2018-06-27T12:15:10.206Z,70.73
2018-06-27T12:16:20.308Z,71.37
2018-06-27T12:17:30.411Z,71.34
2018-06-27T12:18:40.528Z,70.47
2018-06-27T12:19:50.863Z,69.75
2018-06-27T12:21:00.936Z,68.91
2018-06-27T12:22:11.026Z,68.85
2018-06-27T12:23:21.117Z,69.01
2018-06-27T12:24:31.202Z,68.62
2018-06-27T12:25:41.306Z,69.17
2018-06-27T12:26:51.388Z,69.17
2018-06-27T12:28:01.991Z,69.76
2018-06-27T12:29:12.120Z,69.66
2018-06-27T12:30:22.208Z,69.63
2018-06-27T12:31:32.294Z,69.92
2018-06-27T12:32:42.363Z,70.57
2018-06-27T12:33:52.499Z,70.28
2018-06-27T12:35:02.596Z,70.73
2018-06-27T12:36:12.671Z,70.83
2018-06-27T12:37:22.772Z,70.34
2018-06-27T12:38:32.647Z,70.53
2018-06-27T12:39:42.926Z,70.73
2018-06-27T12:40:53.026Z,69.79
2018-06-27T12:42:03.163Z,68.85
2018-06-27T12:43:13.266Z,68.78
2018-06-27T12:44:23.443Z,69.01
2018-06-27T12:45:33.818Z,68.65
2018-06-27T12:46:43.917Z,68.78
2018-06-27T12:47:54.046Z,68.59
2018-06-27T12:49:04.154Z,68.59
2018-06-27T12:50:14.416Z,68.98
2018-06-27T12:51:24.448Z,68.78
2018-06-27T12:52:34.553Z,68.85
2018-06-27T12:53:44.684Z,68.68
2018-06-27T12:54:54.496Z,68.75
2018-06-27T12:56:04.595Z,69.18
2018-06-27T12:57:14.692Z,69.34
2018-06-27T12:58:24.795Z,69.92
2018-06-27T12:59:34.406Z,69.6
2018-06-27T13:00:44.442Z,70.28
2018-06-27T13:01:54.542Z,69.79
2018-06-27T13:03:04.391Z,69.79
2018-06-27T13:04:14.726Z,70.05
2018-06-27T13:05:24.569Z,70.8
2018-06-27T13:06:34.383Z,69.85
2018-06-27T13:07:44.210Z,69.7
2018-06-27T13:08:54.174Z,69.4
2018-06-27T13:10:04.296Z,69.31
2018-06-27T13:11:14.429Z,69.31
2018-06-27T13:12:24.519Z,68.65
2018-06-27T13:13:34.882Z,68.68
2018-06-27T13:14:44.977Z,68.49
2018-06-27T13:15:55.253Z,69.14
2018-06-27T13:17:05.412Z,69.5
2018-06-27T13:18:15.501Z,69.6
2018-06-27T13:19:25.613Z,70.8
2018-06-27T13:20:35.721Z,71.58
2018-06-27T13:21:45.817Z,71.9
2018-06-27T13:22:55.957Z,72.45
2018-06-27T13:24:06.039Z,72.61
2018-06-27T13:25:15.865Z,73.25
2018-06-27T13:26:25.988Z,73.51
2018-06-27T13:27:36.458Z,73.32
2018-06-27T13:28:48.048Z,73.28
2018-06-27T13:30:00.343Z,73.34
2018-06-27T13:31:10.717Z,73.34
2018-06-27T13:32:21.518Z,72.47
2018-06-27T13:33:34.090Z,71.92
2018-06-27T13:34:46.957Z,71.41
2018-06-27T13:36:00.191Z,70.86
2018-06-27T13:37:12.336Z,71.05
2018-06-27T13:38:25.355Z,71.05
2018-06-27T13:39:37.861Z,70.95
2018-06-27T13:40:48.764Z,70.95
2018-06-27T13:41:58.861Z,70.17
2018-06-27T13:43:08.942Z,70.4
2018-06-27T13:44:18.917Z,70.6
2018-06-27T13:45:28.996Z,71.18
2018-06-27T13:46:38.829Z,71.08
2018-06-27T13:47:48.934Z,70.86
2018-06-27T13:48:58.775Z,71.25
2018-06-27T13:50:08.804Z,70.98
2018-06-27T13:51:19.191Z,70.79
2018-06-27T13:52:29.321Z,70.34
2018-06-27T13:53:39.438Z,70.14
2018-06-27T13:54:49.043Z,69.79
2018-06-27T13:55:59.149Z,70.18
2018-06-27T13:57:08.985Z,69.89
2018-06-27T13:58:19.106Z,69.24
2018-06-27T13:59:29.435Z,69.31
2018-06-27T14:00:39.758Z,68.36
2018-06-27T14:01:49.636Z,68.19
2018-06-27T14:02:59.971Z,67.54
2018-06-27T14:04:09.850Z,67.71
2018-06-27T14:05:19.971Z,67.74
2018-06-27T14:06:30.173Z,67.65
2018-06-27T14:07:40.321Z,67.77
2018-06-27T14:08:50.429Z,67.41
2018-06-27T14:10:00.326Z,68.01
2018-06-27T14:11:10.445Z,67.97
2018-06-27T14:12:20.597Z,69.05
2018-06-27T14:13:30.447Z,68.72
2018-06-27T14:14:40.559Z,69.08
2018-06-27T14:15:50.709Z,69.83
2018-06-27T14:17:00.833Z,70.09
2018-06-27T14:18:10.957Z,70.94
2018-06-27T14:19:21.127Z,70.64
2018-06-27T14:20:30.974Z,71.2
2018-06-27T14:21:41.076Z,71.06
2018-06-27T14:22:50.630Z,70.97
2018-06-27T14:24:00.823Z,71.51
2018-06-27T14:25:11.362Z,71.29
2018-06-27T14:26:21.207Z,71.29
2018-06-27T14:27:31.044Z,71.48
2018-06-27T14:28:41.152Z,71.09
2018-06-27T14:29:51.272Z,71.48
2018-06-27T14:31:02.448Z,71.35
2018-06-27T14:32:12.600Z,70.86
2018-06-27T14:33:22.452Z,71.35
2018-06-27T14:34:32.022Z,71.55
2018-06-27T14:35:42.119Z,71.7
2018-06-27T14:36:52.232Z,71.7
2018-06-27T14:38:02.068Z,71.77
2018-06-27T14:39:12.173Z,72.41
2018-06-27T14:40:22.257Z,73
2018-06-27T14:41:32.109Z,72.8
2018-06-27T14:42:41.674Z,73.16
2018-06-27T14:43:51.593Z,73.61
2018-06-27T14:45:02.021Z,73.9
2018-06-27T14:46:12.138Z,74.16
2018-06-27T14:47:22.239Z,74.57
2018-06-27T14:48:32.358Z,73.95
2018-06-27T14:49:42.462Z,74.5
2018-06-27T14:50:52.566Z,74.52
2018-06-27T14:52:02.685Z,74.13
2018-06-27T14:53:13.056Z,74.93
2018-06-27T14:54:23.332Z,74.99
2018-06-27T14:55:33.207Z,75.15
2018-06-27T14:56:43.089Z,75.65
2018-06-27T14:57:53.226Z,75.87
2018-06-27T14:59:03.354Z,76.51
2018-06-27T15:00:13.332Z,76.24
2018-06-27T15:01:23.612Z,76.2
2018-06-27T15:02:33.873Z,76.07
2018-06-27T15:03:44.130Z,75.45
2018-06-27T15:04:55.364Z,75.65
2018-06-27T15:06:11.986Z,74.93
2018-06-27T15:07:29.963Z,74.84
2018-06-27T15:08:49.219Z,74.03
2018-06-27T15:10:03.700Z,73.55
2018-06-27T15:11:14.447Z,73.36
2018-06-27T15:12:24.603Z,73.74
2018-06-27T15:13:34.949Z,73.16
2018-06-27T15:14:45.079Z,73.46
2018-06-27T15:15:55.188Z,72.78
2018-06-27T15:17:05.298Z,72.59
2018-06-27T15:18:15.439Z,72.94
2018-06-27T15:19:25.548Z,72.65
2018-06-27T15:20:35.994Z,72.74
2018-06-27T15:21:46.397Z,72.94
2018-06-27T15:22:56.292Z,72.74
2018-06-27T15:24:06.403Z,72.84
2018-06-27T15:25:16.513Z,72.94
2018-06-27T15:26:26.650Z,72.55
2018-06-27T15:27:36.786Z,72.32
2018-06-27T15:28:46.608Z,72.42
2018-06-27T15:29:56.715Z,72.13
2018-06-27T15:31:07.024Z,72.23
2018-06-27T15:32:17.109Z,72.23
2018-06-27T15:33:27.248Z,72.52
2018-06-27T15:34:37.418Z,72.61
2018-06-27T15:35:47.289Z,71.84